Baldwin, New York
Current Conditions -  °F | °C
As of 3:51 AM on Wednesday 28 Jan 2015 (Local Time) from KJFK Reporting Station
Few Clouds Few Clouds  
Wind Chill: -17°   Ceiling: Unl
Heat Index: -8°   Visibility: 10mi
Dew Point: -17°   Wind: 18mph
Humidity: 48%   Direction: 320°NW
Pressure: 29.92"   Gusts: NA
Location:  40.66°N, 73.61°W
Report Text: KJFK 280851Z 32016KT 10SM FEW140 M08/M17 A2992 RMK AO2 SLP131 T10781172 51018 $
Loading
Personal Weather Stations






























Interactive Weather Map New forecast layout! Learn more

10-Day Weather Forecast

Advertisements
Track Severe Weather on mobile